createdAt,value
2022-10-17T00:02:24.819Z,17.42
2022-10-17T00:04:51.319Z,17.40
2022-10-17T00:07:17.812Z,17.38
2022-10-17T00:09:44.782Z,17.40
2022-10-17T00:12:11.094Z,17.31
2022-10-17T00:14:37.456Z,17.28
2022-10-17T00:17:03.749Z,17.27
2022-10-17T00:19:30.067Z,17.22
2022-10-17T00:21:56.544Z,17.23
2022-10-17T00:24:22.855Z,17.24
2022-10-17T00:26:49.151Z,17.21
2022-10-17T00:29:15.433Z,17.19
2022-10-17T00:31:41.906Z,17.20
2022-10-17T00:34:08.202Z,17.08
2022-10-17T00:36:34.863Z,17.13
2022-10-17T00:39:01.139Z,17.13
2022-10-17T00:41:31.435Z,17.13
2022-10-17T00:44:28.501Z,17.07
2022-10-17T00:46:55.855Z,17.03
2022-10-17T00:49:25.008Z,16.94
2022-10-17T00:51:59.092Z,17.03
2022-10-17T00:54:30.519Z,17.00
2022-10-17T00:56:57.753Z,17.04
2022-10-17T00:59:25.051Z,17.07
2022-10-17T01:01:59.915Z,17.09
2022-10-17T01:04:26.313Z,16.96
2022-10-17T01:06:52.626Z,16.90
2022-10-17T01:09:19.046Z,16.93
2022-10-17T01:11:55.507Z,16.92
2022-10-17T01:14:40.539Z,16.81
2022-10-17T01:17:16.978Z,16.63
2022-10-17T01:20:14.160Z,16.65
2022-10-17T01:22:53.168Z,16.73
2022-10-17T01:25:37.927Z,16.69
2022-10-17T01:28:52.645Z,16.62
2022-10-17T01:31:26.098Z,16.56
2022-10-17T01:34:04.841Z,16.60
2022-10-17T01:36:40.400Z,16.62
2022-10-17T01:39:41.619Z,16.62
2022-10-17T01:42:24.318Z,16.49
2022-10-17T01:45:10.252Z,16.51
2022-10-17T01:47:37.846Z,16.56
2022-10-17T01:50:28.425Z,16.45
2022-10-17T01:53:19.127Z,16.42
2022-10-17T01:55:48.846Z,16.43
2022-10-17T01:58:32.051Z,16.53
2022-10-17T02:01:01.937Z,16.43
2022-10-17T02:03:28.793Z,16.43
2022-10-17T02:05:55.153Z,16.44
2022-10-17T02:08:44.847Z,16.42
2022-10-17T02:11:16.537Z,16.42
2022-10-17T02:14:08.737Z,16.38
2022-10-17T02:17:09.041Z,16.34
2022-10-17T02:19:50.257Z,16.40
2022-10-17T02:22:22.584Z,16.32
2022-10-17T02:24:52.524Z,16.31
2022-10-17T02:27:49.640Z,16.27
2022-10-17T02:30:29.353Z,16.22
2022-10-17T02:33:01.797Z,16.10
2022-10-17T02:35:32.717Z,16.09
2022-10-17T02:38:00.655Z,15.98
2022-10-17T02:40:29.948Z,15.96
2022-10-17T02:42:58.756Z,16.03
2022-10-17T02:45:27.715Z,16.01
2022-10-17T02:48:04.353Z,16.01
2022-10-17T02:50:56.917Z,15.95
2022-10-17T02:53:55.596Z,15.80
2022-10-17T02:56:22.183Z,15.86
2022-10-17T02:58:56.353Z,15.77
2022-10-17T03:01:23.008Z,15.70
2022-10-17T03:03:49.386Z,15.68
2022-10-17T03:06:15.988Z,15.54
2022-10-17T03:08:42.333Z,15.60
2022-10-17T03:11:08.763Z,15.61
2022-10-17T03:13:37.547Z,15.49
2022-10-17T03:16:06.400Z,15.44
2022-10-17T03:18:32.720Z,15.41
2022-10-17T03:20:59.196Z,15.44
2022-10-17T03:23:25.479Z,15.49
2022-10-17T03:25:51.785Z,15.46
2022-10-17T03:28:18.083Z,15.47
2022-10-17T03:30:44.384Z,15.43
2022-10-17T03:33:10.683Z,15.40
2022-10-17T03:35:39.877Z,15.47
2022-10-17T03:38:06.200Z,15.38
2022-10-17T03:40:32.483Z,15.44
2022-10-17T03:42:58.874Z,15.46
2022-10-17T03:45:25.241Z,15.44
2022-10-17T03:47:51.526Z,15.14
2022-10-17T03:50:18.022Z,15.22
2022-10-17T03:52:48.344Z,15.20
2022-10-17T03:55:15.097Z,15.18
2022-10-17T03:57:43.465Z,15.18
2022-10-17T04:00:12.304Z,15.26
2022-10-17T04:02:38.591Z,15.39
2022-10-17T04:05:05.552Z,15.36
2022-10-17T04:07:31.890Z,15.24
2022-10-17T04:09:58.178Z,14.99
2022-10-17T04:12:24.514Z,14.90
2022-10-17T04:14:50.797Z,14.67
2022-10-17T04:17:17.281Z,14.67
2022-10-17T04:19:43.571Z,14.62
2022-10-17T04:22:09.857Z,14.67
2022-10-17T04:24:36.153Z,14.59
2022-10-17T04:27:02.492Z,14.72
2022-10-17T04:29:28.801Z,14.79
2022-10-17T04:31:55.888Z,14.73
2022-10-17T04:34:22.187Z,14.66
2022-10-17T04:36:48.579Z,14.70
2022-10-17T04:39:14.951Z,14.73
2022-10-17T04:41:41.597Z,14.63
2022-10-17T04:44:08.030Z,14.66
2022-10-17T04:46:34.847Z,14.67
2022-10-17T04:49:01.343Z,14.69
2022-10-17T04:51:27.709Z,13.88
2022-10-17T04:53:54.640Z,13.64
2022-10-17T04:56:23.330Z,13.65
2022-10-17T04:58:50.355Z,13.43
2022-10-17T05:01:19.464Z,13.28
2022-10-17T05:03:46.446Z,13.37
2022-10-17T05:06:21.474Z,13.68
2022-10-17T05:08:48.167Z,13.97
2022-10-17T05:11:21.956Z,13.99
2022-10-17T05:13:53.365Z,14.17
2022-10-17T05:16:20.032Z,14.17
2022-10-17T05:18:52.936Z,14.09
2022-10-17T05:21:20.419Z,14.21
2022-10-17T05:23:46.970Z,14.32
2022-10-17T05:26:13.699Z,14.40
2022-10-17T05:28:40.458Z,14.34
2022-10-17T05:31:08.883Z,14.47
2022-10-17T05:33:36.361Z,14.46
2022-10-17T05:36:03.545Z,14.31
2022-10-17T05:38:29.897Z,14.49
2022-10-17T05:41:04.437Z,14.61
2022-10-17T05:43:31.862Z,14.51
2022-10-17T05:45:58.441Z,14.47
2022-10-17T05:48:25.263Z,14.58
2022-10-17T05:51:01.326Z,14.52
2022-10-17T05:53:31.007Z,14.48
2022-10-17T05:55:59.180Z,14.45
2022-10-17T05:58:45.512Z,14.32
2022-10-17T06:01:12.993Z,14.39
2022-10-17T06:03:39.651Z,14.34
2022-10-17T06:06:08.069Z,14.38
2022-10-17T06:08:34.421Z,14.38
2022-10-17T06:11:01.681Z,14.47
2022-10-17T06:13:29.560Z,14.52
2022-10-17T06:15:55.923Z,14.47
2022-10-17T06:18:22.434Z,14.48
2022-10-17T06:20:48.843Z,14.37
2022-10-17T06:23:15.541Z,14.59
2022-10-17T06:25:41.937Z,14.61
2022-10-17T06:28:08.267Z,14.72
2022-10-17T06:30:34.556Z,14.81
2022-10-17T06:33:01.327Z,14.62
2022-10-17T06:35:27.618Z,14.66
2022-10-17T06:37:53.904Z,14.67
2022-10-17T06:40:20.186Z,14.68
2022-10-17T06:42:46.500Z,14.73
2022-10-17T06:45:12.839Z,14.73
2022-10-17T06:47:39.332Z,14.82
2022-10-17T06:50:06.043Z,14.82
2022-10-17T06:52:32.529Z,14.78
2022-10-17T06:54:58.859Z,14.83
2022-10-17T06:57:25.201Z,14.86
2022-10-17T06:59:51.498Z,14.93
2022-10-17T07:02:17.786Z,14.84
2022-10-17T07:04:46.919Z,14.96
2022-10-17T07:07:13.217Z,15.10
2022-10-17T07:09:39.505Z,15.14
2022-10-17T07:12:08.214Z,15.10
2022-10-17T07:14:35.649Z,15.06
2022-10-17T07:17:02.232Z,15.10
2022-10-17T07:19:28.713Z,15.21
2022-10-17T07:21:55.422Z,15.16
2022-10-17T07:24:21.923Z,15.10
2022-10-17T07:26:48.219Z,15.06
2022-10-17T07:29:14.594Z,15.03
2022-10-17T07:31:40.882Z,15.00
2022-10-17T07:34:07.194Z,15.00
2022-10-17T07:36:33.654Z,15.06
2022-10-17T07:38:59.966Z,15.12
2022-10-17T07:41:26.468Z,15.03
2022-10-17T07:43:52.765Z,15.14
2022-10-17T07:46:19.070Z,15.05
2022-10-17T07:48:45.374Z,15.12
2022-10-17T07:51:11.693Z,15.31
2022-10-17T07:53:39.215Z,15.39
2022-10-17T07:56:11.428Z,15.46
2022-10-17T07:58:38.131Z,15.39
2022-10-17T08:01:09.520Z,15.11
2022-10-17T08:03:38.620Z,15.26
2022-10-17T08:06:05.181Z,15.32
2022-10-17T08:08:31.694Z,15.47
2022-10-17T08:11:04.040Z,15.62
2022-10-17T08:13:30.411Z,15.59
2022-10-17T08:16:07.374Z,15.55
2022-10-17T08:18:34.992Z,15.61
2022-10-17T08:21:02.840Z,15.70
2022-10-17T08:23:29.726Z,15.84
2022-10-17T08:25:59.821Z,15.96
2022-10-17T08:28:26.266Z,15.90
2022-10-17T08:30:52.610Z,16.04
2022-10-17T08:33:19.096Z,16.11
2022-10-17T08:35:45.385Z,15.64
2022-10-17T08:38:13.332Z,15.59
2022-10-17T08:40:42.914Z,15.66
2022-10-17T08:43:18.435Z,15.69
2022-10-17T08:46:03.250Z,15.66
2022-10-17T08:48:33.057Z,15.81
2022-10-17T08:51:06.281Z,16.11
2022-10-17T08:53:43.499Z,16.37
2022-10-17T08:56:30.317Z,16.63
2022-10-17T08:59:05.894Z,16.79
2022-10-17T09:01:40.157Z,16.84
2022-10-17T09:04:35.006Z,16.78
2022-10-17T09:07:13.224Z,16.68
2022-10-17T09:10:15.445Z,16.73
2022-10-17T09:13:14.925Z,16.79
2022-10-17T09:16:20.506Z,16.79
2022-10-17T09:18:59.189Z,16.69
2022-10-17T09:21:42.005Z,16.60
2022-10-17T09:24:16.273Z,16.71
2022-10-17T09:26:45.528Z,16.91
2022-10-17T09:29:22.888Z,17.05
2022-10-17T09:34:31.240Z,17.25
2022-10-17T09:36:59.554Z,17.35
2022-10-17T09:39:29.089Z,17.35
2022-10-17T09:41:58.148Z,17.39
2022-10-17T09:44:38.705Z,17.28
2022-10-17T09:47:29.948Z,17.54
2022-10-17T09:49:56.798Z,17.70
2022-10-17T09:52:34.880Z,17.86
2022-10-17T09:55:05.379Z,17.97
2022-10-17T10:01:21.053Z,18.25
2022-10-17T10:04:30.250Z,18.31
2022-10-17T10:07:12.089Z,18.54
2022-10-17T10:09:40.174Z,18.57
2022-10-17T10:12:18.638Z,18.80
2022-10-17T10:14:47.290Z,18.90
2022-10-17T10:17:34.000Z,19.20
2022-10-17T10:20:01.349Z,19.18
2022-10-17T10:22:28.393Z,19.25
2022-10-17T10:25:15.341Z,19.37
2022-10-17T10:27:44.497Z,19.32
2022-10-17T10:30:27.685Z,19.57
2022-10-17T10:32:56.674Z,19.62
2022-10-17T10:35:30.499Z,19.74
2022-10-17T10:37:58.670Z,19.74
2022-10-17T10:40:29.557Z,19.82
2022-10-17T10:43:04.020Z,19.97
2022-10-17T10:45:52.812Z,20.19
2022-10-17T10:48:25.579Z,20.20
2022-10-17T10:50:54.564Z,20.19
2022-10-17T10:53:35.157Z,20.32
2022-10-17T10:56:09.772Z,20.51
2022-10-17T10:58:54.300Z,20.41
2022-10-17T11:01:37.051Z,20.64
2022-10-17T11:04:21.693Z,20.82
2022-10-17T11:06:52.456Z,20.98
2022-10-17T11:10:11.823Z,21.06
2022-10-17T11:15:28.112Z,21.38
2022-10-17T11:18:01.049Z,21.38
2022-10-17T11:20:46.728Z,21.50
2022-10-17T11:23:21.428Z,21.68
2022-10-17T11:25:52.738Z,21.71
2022-10-17T11:28:21.242Z,21.70
2022-10-17T11:31:04.530Z,21.99
2022-10-17T11:33:45.403Z,22.24
2022-10-17T11:36:14.140Z,22.51
2022-10-17T11:39:06.752Z,22.70
2022-10-17T11:41:47.767Z,23.04
2022-10-17T11:44:27.371Z,23.20
2022-10-17T11:46:59.105Z,23.39
2022-10-17T11:49:34.035Z,23.23
2022-10-17T11:52:51.359Z,23.30
2022-10-17T11:55:23.688Z,23.67
2022-10-17T11:58:12.754Z,23.97
2022-10-17T12:00:58.326Z,24.33
2022-10-17T12:03:42.936Z,24.54
2022-10-17T12:06:37.494Z,24.46
2022-10-17T12:09:15.946Z,24.69
2022-10-17T12:11:50.734Z,24.83
2022-10-17T12:14:38.625Z,25.16
2022-10-17T12:17:21.004Z,25.55
2022-10-17T12:19:47.405Z,25.81
2022-10-17T12:22:28.536Z,25.64
2022-10-17T12:25:03.417Z,26.09
2022-10-17T12:27:32.918Z,25.79
2022-10-17T12:30:02.063Z,25.72
2022-10-17T12:32:36.834Z,26.24
2022-10-17T12:35:21.152Z,26.91
2022-10-17T12:37:50.456Z,27.30
2022-10-17T12:40:35.267Z,26.38
2022-10-17T12:43:14.032Z,25.90
2022-10-17T12:45:51.508Z,26.55
2022-10-17T12:48:36.227Z,27.14
2022-10-17T12:54:08.156Z,27.91
2022-10-17T12:56:41.704Z,28.39
2022-10-17T12:59:23.335Z,28.75
2022-10-17T13:01:54.540Z,29.02
2022-10-17T13:04:21.786Z,29.34
2022-10-17T13:06:55.553Z,29.49
2022-10-17T13:09:31.507Z,29.76
2022-10-17T13:12:02.358Z,29.93
2022-10-17T13:14:30.125Z,29.58
2022-10-17T13:17:03.253Z,29.64
2022-10-17T13:19:42.016Z,28.92
2022-10-17T13:22:20.855Z,29.17
2022-10-17T13:24:48.401Z,29.60
2022-10-17T13:27:32.420Z,29.97
2022-10-17T13:30:01.475Z,30.08
2022-10-17T13:32:37.798Z,29.29
2022-10-17T13:35:07.240Z,29.10
2022-10-17T13:37:34.489Z,29.35
2022-10-17T13:40:11.371Z,28.92
2022-10-17T13:42:47.888Z,28.53
2022-10-17T13:45:30.282Z,27.64
2022-10-17T13:47:59.858Z,27.62
2022-10-17T13:50:44.229Z,27.79
2022-10-17T13:53:30.522Z,27.49
2022-10-17T13:56:27.760Z,27.06
2022-10-17T13:58:53.703Z,27.76
2022-10-17T14:01:21.494Z,27.40
2022-10-17T14:03:51.783Z,25.97
2022-10-17T14:06:24.787Z,25.97
2022-10-17T14:09:07.460Z,26.00
2022-10-17T14:11:37.314Z,26.09
2022-10-17T14:14:06.199Z,25.95
2022-10-17T14:16:41.426Z,26.39
2022-10-17T14:19:36.055Z,26.23
2022-10-17T14:22:26.440Z,26.53
2022-10-17T14:24:53.504Z,26.61
2022-10-17T14:27:31.463Z,26.59
2022-10-17T14:30:03.538Z,27.06
2022-10-17T14:35:18.750Z,26.71
2022-10-17T14:37:48.659Z,26.13
2022-10-17T14:40:21.062Z,26.45
2022-10-17T14:42:48.276Z,26.12
2022-10-17T14:45:27.579Z,26.40
2022-10-17T14:47:56.793Z,26.75
2022-10-17T14:50:25.780Z,26.35
2022-10-17T14:53:04.898Z,26.02
2022-10-17T14:55:33.970Z,25.83
2022-10-17T14:58:00.495Z,26.01
2022-10-17T15:00:27.863Z,25.68
2022-10-17T15:02:55.626Z,25.78
2022-10-17T15:05:23.171Z,26.20
2022-10-17T15:07:49.601Z,25.87
2022-10-17T15:10:30.552Z,25.82
2022-10-17T15:12:59.115Z,26.15
2022-10-17T15:15:31.705Z,25.87
2022-10-17T15:17:58.947Z,25.73
2022-10-17T15:20:27.784Z,25.59
2022-10-17T15:22:54.765Z,25.97
2022-10-17T15:25:21.692Z,26.26
2022-10-17T15:27:48.100Z,25.95
2022-10-17T15:30:26.728Z,25.92
2022-10-17T15:32:53.141Z,26.04
2022-10-17T15:35:20.292Z,26.02
2022-10-17T15:37:46.770Z,26.07
2022-10-17T15:40:22.702Z,26.18
2022-10-17T15:42:49.540Z,25.90
2022-10-17T15:45:18.380Z,26.11
2022-10-17T15:47:55.685Z,26.36
2022-10-17T15:50:22.439Z,26.28
2022-10-17T15:52:52.680Z,25.90
2022-10-17T15:55:19.646Z,26.24
2022-10-17T15:57:48.076Z,26.42
2022-10-17T16:00:21.012Z,26.41
2022-10-17T16:02:49.126Z,26.49
2022-10-17T16:05:25.908Z,26.56
2022-10-17T16:07:53.900Z,26.44
2022-10-17T16:10:21.339Z,26.09
2022-10-17T16:12:49.720Z,26.02
2022-10-17T16:15:24.882Z,25.93
2022-10-17T16:17:52.723Z,25.95
2022-10-17T16:20:19.784Z,25.88
2022-10-17T16:22:46.753Z,25.82
2022-10-17T16:25:25.206Z,25.55
2022-10-17T16:27:53.625Z,25.44
2022-10-17T16:32:55.165Z,25.31
2022-10-17T16:35:31.710Z,25.25
2022-10-17T16:38:01.394Z,25.11
2022-10-17T16:40:27.733Z,25.08
2022-10-17T16:42:54.035Z,24.93
2022-10-17T16:45:22.801Z,24.77
2022-10-17T16:47:50.366Z,24.53
2022-10-17T16:50:16.786Z,24.42
2022-10-17T16:52:43.103Z,24.18
2022-10-17T16:55:09.971Z,24.12
2022-10-17T16:57:36.536Z,23.98
2022-10-17T17:00:04.796Z,24.01
2022-10-17T17:02:31.476Z,23.94
2022-10-17T17:04:58.127Z,23.73
2022-10-17T17:07:24.617Z,23.73
2022-10-17T17:09:51.664Z,23.68
2022-10-17T17:12:18.019Z,23.63
2022-10-17T17:14:44.410Z,23.53
2022-10-17T17:17:19.436Z,23.39
2022-10-17T17:19:56.985Z,23.40
2022-10-17T17:22:23.374Z,23.35
2022-10-17T17:27:16.173Z,23.19
2022-10-17T17:29:42.561Z,23.15
2022-10-17T17:32:09.013Z,23.15
2022-10-17T17:34:36.818Z,22.98
2022-10-17T17:37:03.400Z,22.84
2022-10-17T17:39:29.717Z,22.63
2022-10-17T17:41:56.075Z,22.56
2022-10-17T17:44:22.603Z,22.48
2022-10-17T17:46:49.292Z,22.52
2022-10-17T17:49:15.699Z,22.49
2022-10-17T17:51:45.954Z,22.48
2022-10-17T17:54:12.723Z,22.27
2022-10-17T17:56:39.432Z,22.20
2022-10-17T17:59:05.778Z,22.14
2022-10-17T18:01:37.772Z,22.13
2022-10-17T18:04:06.776Z,22.17
2022-10-17T18:06:33.189Z,22.08
2022-10-17T18:08:59.687Z,21.87
2022-10-17T18:11:27.233Z,21.87
2022-10-17T18:13:55.721Z,21.73
2022-10-17T18:16:22.468Z,21.61
2022-10-17T18:18:49.029Z,21.65
2022-10-17T18:21:15.630Z,21.68
2022-10-17T18:23:44.938Z,21.71
2022-10-17T18:26:12.087Z,21.70
2022-10-17T18:31:19.038Z,21.73
2022-10-17T18:33:45.599Z,21.60
2022-10-17T18:36:14.653Z,21.50
2022-10-17T18:38:41.303Z,21.34
2022-10-17T18:41:13.049Z,21.35
2022-10-17T18:43:41.286Z,21.32
2022-10-17T18:46:12.446Z,21.32
2022-10-17T18:48:42.952Z,21.26
2022-10-17T18:51:09.614Z,21.08
2022-10-17T18:53:39.802Z,21.06
2022-10-17T18:56:06.562Z,20.85
2022-10-17T18:58:32.974Z,20.95
2022-10-17T19:01:04.397Z,20.89
2022-10-17T19:03:31.896Z,20.88
2022-10-17T19:06:08.051Z,20.92
2022-10-17T19:08:35.761Z,20.97
2022-10-17T19:11:11.094Z,20.94
2022-10-17T19:13:37.973Z,20.91
2022-10-17T19:16:06.702Z,20.81
2022-10-17T19:18:33.919Z,20.72
2022-10-17T19:21:09.625Z,20.72
2022-10-17T19:23:37.049Z,20.70
2022-10-17T19:26:11.486Z,20.70
2022-10-17T19:28:41.961Z,20.69
2022-10-17T19:31:08.805Z,20.58
2022-10-17T19:33:36.005Z,20.65
2022-10-17T19:36:05.581Z,20.65
2022-10-17T19:38:32.359Z,20.63
2022-10-17T19:43:27.104Z,20.53
2022-10-17T19:45:58.909Z,20.41
2022-10-17T19:48:26.393Z,20.35
2022-10-17T19:50:53.571Z,20.29
2022-10-17T19:53:22.935Z,20.23
2022-10-17T19:55:49.795Z,20.13
2022-10-17T19:58:16.231Z,20.09
2022-10-17T20:00:47.268Z,20.06
2022-10-17T20:03:13.617Z,20.02
2022-10-17T20:05:39.943Z,19.92
2022-10-17T20:08:06.376Z,19.90
2022-10-17T20:10:33.623Z,19.88
2022-10-17T20:13:00.047Z,19.85
2022-10-17T20:15:26.494Z,19.70
2022-10-17T20:17:52.829Z,19.58
2022-10-17T20:20:19.686Z,19.53
2022-10-17T20:22:46.616Z,19.61
2022-10-17T20:25:13.220Z,19.62
2022-10-17T20:27:39.657Z,19.65
2022-10-17T20:30:06.723Z,19.60
2022-10-17T20:32:39.486Z,19.64
2022-10-17T20:35:07.580Z,19.63
2022-10-17T20:37:38.551Z,19.50
2022-10-17T20:40:33.751Z,19.44
2022-10-17T20:42:54.901Z,19.44
2022-10-17T20:45:37.386Z,19.41
2022-10-17T20:48:15.714Z,19.44
2022-10-17T20:50:43.621Z,19.43
2022-10-17T20:53:35.356Z,19.36
2022-10-17T20:56:17.034Z,19.33
2022-10-17T20:58:43.378Z,19.16
2022-10-17T21:01:10.699Z,19.23
2022-10-17T21:03:41.105Z,19.20
2022-10-17T21:06:11.138Z,19.24
2022-10-17T21:08:37.599Z,19.16
2022-10-17T21:11:21.907Z,19.13
2022-10-17T21:13:54.947Z,19.12
2022-10-17T21:16:21.735Z,19.11
2022-10-17T21:18:49.305Z,19.10
2022-10-17T21:21:26.592Z,19.04
2022-10-17T21:23:58.582Z,18.96
2022-10-17T21:26:24.974Z,18.95
2022-10-17T21:28:51.567Z,19.00
2022-10-17T21:31:19.470Z,19.02
2022-10-17T21:33:48.842Z,19.00
2022-10-17T21:36:18.543Z,18.87
2022-10-17T21:38:47.164Z,18.76
2022-10-17T21:41:16.027Z,18.75
2022-10-17T21:43:43.014Z,18.64
2022-10-17T21:46:15.404Z,18.54
2022-10-17T21:48:42.305Z,18.60
2022-10-17T21:51:14.149Z,18.55
2022-10-17T21:53:41.075Z,18.57
2022-10-17T21:56:11.077Z,18.58
2022-10-17T21:58:37.833Z,18.52
2022-10-17T22:01:10.540Z,18.53
2022-10-17T22:03:42.652Z,18.57
2022-10-17T22:09:00.428Z,18.51
2022-10-17T22:11:30.276Z,18.51
2022-10-17T22:13:59.276Z,18.44
2022-10-17T22:16:26.456Z,18.39
2022-10-17T22:18:56.224Z,18.38
2022-10-17T22:21:23.122Z,18.37
2022-10-17T22:23:59.084Z,18.43
2022-10-17T22:26:27.074Z,18.29
2022-10-17T22:28:53.718Z,18.28
2022-10-17T22:31:20.126Z,18.30
2022-10-17T22:33:46.994Z,18.14
2022-10-17T22:36:13.884Z,18.06
2022-10-17T22:38:40.446Z,18.12
2022-10-17T22:41:07.140Z,17.95
2022-10-17T22:43:33.510Z,18.02
2022-10-17T22:46:03.032Z,18.00
2022-10-17T22:48:30.115Z,18.05
2022-10-17T22:50:58.684Z,18.04
2022-10-17T22:53:26.675Z,18.06
2022-10-17T22:56:00.199Z,18.07
2022-10-17T22:58:27.979Z,18.12
2022-10-17T23:00:55.203Z,18.15
2022-10-17T23:03:23.292Z,18.02
2022-10-17T23:05:50.139Z,17.94
2022-10-17T23:08:17.943Z,18.00
2022-10-17T23:10:45.227Z,18.02
2022-10-17T23:13:12.175Z,17.94
2022-10-17T23:15:38.537Z,17.85
2022-10-17T23:18:04.998Z,17.85
2022-10-17T23:20:31.733Z,17.88
2022-10-17T23:22:58.979Z,17.89
2022-10-17T23:25:25.920Z,17.96
2022-10-17T23:27:52.286Z,17.93
2022-10-17T23:30:18.754Z,17.89
2022-10-17T23:32:45.084Z,17.91
2022-10-17T23:35:11.689Z,17.82
2022-10-17T23:37:38.566Z,17.73
2022-10-17T23:40:06.188Z,17.80
2022-10-17T23:42:32.514Z,17.81
2022-10-17T23:44:59.047Z,17.75
2022-10-17T23:47:25.385Z,17.69
2022-10-17T23:49:51.884Z,17.67
2022-10-17T23:52:18.310Z,17.70
2022-10-17T23:54:44.665Z,17.71
2022-10-17T23:57:10.998Z,17.67
2022-10-17T23:59:37.343Z,17.65
